Time;durP1;ratioP1;P1;durP2;ratioP2;P2;SDS_P1;SDS_P2;PMS_P1;PMS_P2;Temp;Humidity;BMP_temperature;BMP_pressure;BME280_temperature;BME280_humidity;BME280_pressure;Samples;Min_cycle;Max_cycle;Signal;HPM_P1;HPM_P2
2021/05/15 00:01:35;;;;;;;0.80;0.20;;;22.20;52.00;;;;;;5031492;28;20028;-34
2021/05/15 00:04:02;;;;;;;0.70;0.35;;;22.20;52.00;;;;;;5032449;28;20033;-35
2021/05/15 00:06:28;;;;;;;1.10;0.40;;;22.20;52.00;;;;;;5031499;28;20300;-35
2021/05/15 00:08:54;;;;;;;0.43;0.30;;;22.20;52.00;;;;;;5032342;28;20026;-34
2021/05/15 00:11:20;;;;;;;0.90;0.50;;;22.20;51.90;;;;;;5030121;28;20037;-35
2021/05/15 00:13:46;;;;;;;1.92;0.40;;;22.20;51.90;;;;;;5030653;28;20045;-35
2021/05/15 00:16:12;;;;;;;0.57;0.50;;;22.20;51.90;;;;;;5031330;28;20025;-47
2021/05/15 00:18:39;;;;;;;2.80;0.40;;;22.10;51.80;;;;;;5031780;28;20040;-34
2021/05/15 00:21:08;;;;;;;3.00;0.47;;;22.10;51.70;;;;;;5030767;28;20116;-35
2021/05/15 00:23:34;;;;;;;2.25;0.60;;;22.10;51.80;;;;;;5029948;28;20083;-38
2021/05/15 00:26:00;;;;;;;0.98;0.32;;;22.10;51.70;;;;;;5031249;28;20045;-35
2021/05/15 00:28:27;;;;;;;0.68;0.32;;;22.10;51.70;;;;;;5031055;28;20034;-35
2021/05/15 00:30:52;;;;;;;0.90;0.38;;;22.10;51.70;;;;;;5031911;28;20087;-35
2021/05/15 00:33:18;;;;;;;1.63;0.32;;;22.10;51.60;;;;;;5028403;28;20025;-41
2021/05/15 00:35:44;;;;;;;1.30;0.50;;;22.10;51.60;;;;;;5030896;28;20394;-34
2021/05/15 00:38:10;;;;;;;1.73;0.40;;;22.10;51.60;;;;;;5031557;28;20572;-48
2021/05/15 00:40:36;;;;;;;3.78;0.50;;;22.10;51.60;;;;;;5030946;28;20018;-35
2021/05/15 00:43:02;;;;;;;0.63;0.43;;;22.10;51.50;;;;;;5031841;28;20087;-35
2021/05/15 00:45:28;;;;;;;1.75;0.60;;;22.00;51.50;;;;;;4996026;28;20061;-35
2021/05/15 00:47:54;;;;;;;1.08;0.22;;;22.00;51.50;;;;;;5031336;28;20038;-34
2021/05/15 00:50:20;;;;;;;0.40;0.30;;;22.00;51.40;;;;;;5030657;28;20030;-35
2021/05/15 00:52:47;;;;;;;0.43;0.38;;;22.00;51.40;;;;;;5031458;28;20068;-34
2021/05/15 00:55:14;;;;;;;1.88;0.50;;;22.00;51.30;;;;;;5030787;28;20109;-49
2021/05/15 00:57:40;;;;;;;1.73;0.60;;;22.00;51.30;;;;;;5030820;28;20029;-35
2021/05/15 01:00:12;;;;;;;1.05;0.20;;;22.00;51.30;;;;;;5031728;28;20128;-34
2021/05/15 01:02:38;;;;;;;0.30;0.20;;;22.00;51.20;;;;;;5031072;28;20037;-37
2021/05/15 01:05:06;;;;;;;0.75;0.50;;;22.00;51.20;;;;;;5029918;28;20030;-35
2021/05/15 01:07:31;;;;;;;0.77;0.38;;;22.00;51.20;;;;;;5030189;28;20653;-35
2021/05/15 01:09:57;;;;;;;0.80;0.32;;;22.00;51.20;;;;;;5030797;28;20037;-35
2021/05/15 01:12:23;;;;;;;0.98;0.30;;;22.00;51.00;;;;;;5029188;28;20356;-35
2021/05/15 01:14:48;;;;;;;0.57;0.38;;;22.00;51.00;;;;;;5029068;28;20021;-35
2021/05/15 01:17:15;;;;;;;0.70;0.45;;;22.00;51.00;;;;;;5022934;28;20032;-42
2021/05/15 01:19:41;;;;;;;1.20;0.57;;;22.00;51.00;;;;;;5029329;28;20505;-35
2021/05/15 01:22:12;;;;;;;2.97;0.38;;;22.00;51.00;;;;;;5029714;28;20467;-39
2021/05/15 01:24:40;;;;;;;1.92;0.50;;;22.00;51.00;;;;;;5033465;28;20029;-35
2021/05/15 01:27:11;;;;;;;0.57;0.30;;;22.00;50.90;;;;;;5030464;28;21057;-39
2021/05/15 01:29:37;;;;;;;1.77;0.30;;;22.00;50.90;;;;;;5031293;28;20103;-38
2021/05/15 01:32:04;;;;;;;2.20;0.43;;;22.00;50.90;;;;;;5033294;28;20026;-35
2021/05/15 01:34:30;;;;;;;0.82;0.30;;;22.00;50.90;;;;;;5032976;28;20083;-35
2021/05/15 01:36:56;;;;;;;1.05;0.30;;;22.00;50.90;;;;;;5032789;28;20522;-39
2021/05/15 01:39:22;;;;;;;0.47;0.40;;;22.00;50.90;;;;;;5032572;28;20025;-35
2021/05/15 01:41:48;;;;;;;0.40;0.40;;;21.90;50.80;;;;;;5031715;28;20040;-35
2021/05/15 01:44:15;;;;;;;0.82;0.40;;;21.90;50.80;;;;;;5033123;28;20022;-49
2021/05/15 01:46:41;;;;;;;0.70;0.40;;;21.90;50.80;;;;;;5032189;28;20052;-35
2021/05/15 01:49:07;;;;;;;0.28;0.28;;;21.90;50.70;;;;;;5033304;28;20478;-36
2021/05/15 01:51:33;;;;;;;2.38;0.60;;;21.90;50.80;;;;;;5032944;28;20663;-35
2021/05/15 01:53:59;;;;;;;0.28;0.20;;;22.00;50.70;;;;;;5034562;28;20033;-35
2021/05/15 01:56:27;;;;;;;1.10;0.40;;;21.90;50.70;;;;;;5033583;28;20033;-35
2021/05/15 01:58:53;;;;;;;0.75;0.43;;;21.90;50.60;;;;;;5032825;28;20053;-38
2021/05/15 02:01:20;;;;;;;0.60;0.30;;;21.90;50.60;;;;;;5028472;28;20087;-35
2021/05/15 02:03:47;;;;;;;1.67;0.35;;;21.90;50.50;;;;;;5034698;28;20421;-35
2021/05/15 02:06:13;;;;;;;0.60;0.40;;;22.00;50.60;;;;;;5033493;28;20382;-48
2021/05/15 02:08:42;;;;;;;1.75;0.30;;;21.90;50.50;;;;;;5034392;28;20036;-35
2021/05/15 02:11:08;;;;;;;1.75;0.40;;;22.00;50.60;;;;;;5032812;28;20414;-35
2021/05/15 02:13:34;;;;;;;0.82;0.50;;;21.90;50.50;;;;;;5033104;28;20044;-35
2021/05/15 02:16:01;;;;;;;0.35;0.30;;;21.90;50.40;;;;;;5034402;28;20494;-34
2021/05/15 02:18:27;;;;;;;0.77;0.40;;;21.90;50.40;;;;;;5033332;28;20112;-35
2021/05/15 02:20:54;;;;;;;1.10;0.40;;;21.90;50.40;;;;;;5031809;28;20025;-47
2021/05/15 02:23:22;;;;;;;0.93;0.40;;;21.90;50.40;;;;;;5063478;28;20032;-35
2021/05/15 02:25:49;;;;;;;0.38;0.30;;;21.90;50.40;;;;;;5032141;28;20041;-34
2021/05/15 02:28:16;;;;;;;0.30;0.30;;;21.90;50.40;;;;;;5031690;28;20033;-48
2021/05/15 02:30:42;;;;;;;0.75;0.50;;;21.90;50.40;;;;;;5033102;28;20029;-34
2021/05/15 02:33:08;;;;;;;0.50;0.30;;;21.90;50.40;;;;;;5024304;28;20026;-34
2021/05/15 02:35:35;;;;;;;1.08;0.40;;;21.90;50.40;;;;;;5031882;28;20528;-35
2021/05/15 02:38:02;;;;;;;0.50;0.32;;;21.90;50.30;;;;;;5032377;28;20044;-35
2021/05/15 02:40:28;;;;;;;0.68;0.30;;;21.90;50.40;;;;;;5032667;28;20053;-34
2021/05/15 02:42:53;;;;;;;1.75;0.75;;;21.90;50.60;;;;;;5032380;28;20061;-34
2021/05/15 02:45:22;;;;;;;0.57;0.45;;;21.90;50.20;;;;;;5032812;28;20474;-35
2021/05/15 02:47:49;;;;;;;1.08;0.30;;;21.90;50.30;;;;;;5033908;28;20121;-35
2021/05/15 02:50:16;;;;;;;0.60;0.30;;;21.90;50.20;;;;;;5031617;28;20025;-47
2021/05/15 02:52:43;;;;;;;0.50;0.40;;;21.90;50.20;;;;;;5031930;28;20036;-34
2021/05/15 02:55:14;;;;;;;1.00;0.40;;;21.90;50.80;;;;;;5033657;28;20379;-35
2021/05/15 02:57:41;;;;;;;0.52;0.20;;;21.90;50.20;;;;;;5045645;28;20036;-34
2021/05/15 03:00:09;;;;;;;0.50;0.40;;;21.80;50.10;;;;;;5030169;28;20398;-35
2021/05/15 03:02:35;;;;;;;0.80;0.50;;;21.90;50.20;;;;;;5032815;28;20617;-34
2021/05/15 03:05:02;;;;;;;1.95;0.40;;;21.90;50.10;;;;;;5033272;28;20071;-35
2021/05/15 03:07:27;;;;;;;0.52;0.40;;;21.90;50.10;;;;;;5030985;28;20037;-35
2021/05/15 03:09:53;;;;;;;0.88;0.50;;;21.90;50.10;;;;;;5032335;28;20029;-35
2021/05/15 03:12:19;;;;;;;1.45;0.38;;;21.90;50.10;;;;;;5032606;28;20025;-35
2021/05/15 03:14:45;;;;;;;0.82;0.40;;;21.80;50.00;;;;;;5033415;28;20083;-34
2021/05/15 03:17:12;;;;;;;1.02;0.50;;;21.90;50.10;;;;;;5022015;28;20038;-35
2021/05/15 03:19:38;;;;;;;0.98;0.30;;;21.90;50.00;;;;;;5031027;28;20735;-35
2021/05/15 03:22:04;;;;;;;0.30;0.30;;;21.80;50.00;;;;;;5031965;28;20030;-35
2021/05/15 03:24:30;;;;;;;1.88;0.38;;;21.80;50.00;;;;;;5031869;28;20025;-35
2021/05/15 03:26:56;;;;;;;0.30;0.30;;;21.90;49.90;;;;;;5032441;28;20040;-40
2021/05/15 03:29:22;;;;;;;1.15;0.40;;;21.90;49.90;;;;;;5030798;28;20029;-35
2021/05/15 03:31:47;;;;;;;1.02;0.45;;;21.80;49.80;;;;;;5030857;28;20025;-37
2021/05/15 03:34:13;;;;;;;0.77;0.43;;;21.80;49.80;;;;;;5032632;28;20022;-42
2021/05/15 03:36:39;;;;;;;0.65;0.40;;;21.90;49.90;;;;;;5032184;28;20092;-35
2021/05/15 03:39:05;;;;;;;0.30;0.30;;;21.80;49.80;;;;;;5031309;28;20065;-35
2021/05/15 03:41:31;;;;;;;0.90;0.40;;;21.80;49.80;;;;;;5038361;28;20075;-35
2021/05/15 03:43:57;;;;;;;0.32;0.30;;;21.90;49.80;;;;;;5039431;28;20029;-35
2021/05/15 03:46:22;;;;;;;0.45;0.30;;;21.90;49.80;;;;;;5031130;28;20035;-36
2021/05/15 03:48:48;;;;;;;0.45;0.40;;;21.80;49.70;;;;;;5032060;28;20029;-34
2021/05/15 03:51:14;;;;;;;0.45;0.30;;;21.80;49.70;;;;;;5031964;28;20489;-48
2021/05/15 03:53:40;;;;;;;0.90;0.60;;;21.80;49.70;;;;;;5031660;28;20056;-35
2021/05/15 03:56:05;;;;;;;0.98;0.30;;;21.80;49.70;;;;;;5032220;28;20083;-35
2021/05/15 03:58:31;;;;;;;2.03;0.40;;;21.80;49.60;;;;;;5029860;28;20038;-35
2021/05/15 04:00:57;;;;;;;0.90;0.40;;;21.80;49.60;;;;;;5030975;28;20029;-35
2021/05/15 04:03:22;;;;;;;0.40;0.30;;;21.80;49.60;;;;;;5031552;28;20025;-35
2021/05/15 04:05:48;;;;;;;0.43;0.30;;;21.80;49.60;;;;;;5032337;28;20485;-35
2021/05/15 04:08:14;;;;;;;0.30;0.30;;;21.90;49.60;;;;;;5030722;28;20069;-35
2021/05/15 04:10:39;;;;;;;0.73;0.30;;;21.80;49.60;;;;;;5026000;28;20048;-34
2021/05/15 04:16:11;;;;;;;0.90;0.50;;;21.80;49.60;;;;;;5029331;28;20124;-35
2021/05/15 04:18:37;;;;;;;1.52;0.50;;;21.80;49.60;;;;;;5028483;28;20466;-34
2021/05/15 04:21:04;;;;;;;0.85;0.65;;;21.80;49.60;;;;;;5029285;28;20032;-35
2021/05/15 04:23:29;;;;;;;1.10;0.50;;;21.80;49.50;;;;;;5029625;28;20033;-41
2021/05/15 04:25:55;;;;;;;1.60;0.40;;;21.80;49.50;;;;;;5029505;28;20462;-35
2021/05/15 04:28:23;;;;;;;1.38;0.32;;;21.80;49.50;;;;;;5028476;28;20037;-36
2021/05/15 04:30:49;;;;;;;0.60;0.40;;;21.80;49.40;;;;;;5029307;28;20030;-35
2021/05/15 04:33:14;;;;;;;0.70;0.30;;;21.80;49.40;;;;;;5030057;28;20478;-35
2021/05/15 04:35:40;;;;;;;0.82;0.25;;;21.80;49.50;;;;;;5029652;28;20049;-39
2021/05/15 04:38:06;;;;;;;0.22;0.22;;;21.80;49.40;;;;;;5030080;28;20539;-35
2021/05/15 04:40:33;;;;;;;0.60;0.30;;;21.80;49.30;;;;;;5028458;28;20128;-36
2021/05/15 04:42:59;;;;;;;1.17;0.40;;;21.80;49.30;;;;;;5031055;28;20021;-35
2021/05/15 04:45:31;;;;;;;0.77;0.20;;;21.80;50.00;;;;;;5029450;28;20025;-35
2021/05/15 04:47:57;;;;;;;0.30;0.30;;;21.80;49.30;;;;;;5029097;28;20059;-35
2021/05/15 04:50:24;;;;;;;0.35;0.30;;;21.80;49.30;;;;;;5029501;28;20060;-35
2021/05/15 04:52:51;;;;;;;0.80;0.32;;;21.80;49.30;;;;;;5028582;28;20376;-39
2021/05/15 04:55:17;;;;;;;0.55;0.30;;;21.80;49.30;;;;;;5025942;28;20026;-48
2021/05/15 04:57:43;;;;;;;0.90;0.40;;;21.80;49.20;;;;;;5029486;28;20045;-35
2021/05/15 05:00:09;;;;;;;0.40;0.30;;;21.80;49.20;;;;;;5029664;28;20256;-40
2021/05/15 05:02:35;;;;;;;1.02;0.85;;;21.80;49.20;;;;;;5028543;28;20608;-35
2021/05/15 05:05:01;;;;;;;3.17;0.40;;;21.80;49.20;;;;;;5027319;28;20131;-35
2021/05/15 05:07:26;;;;;;;0.38;0.30;;;21.80;49.80;;;;;;5027946;28;20022;-35
2021/05/15 05:09:52;;;;;;;0.70;0.45;;;21.80;49.20;;;;;;5030139;28;20053;-35
2021/05/15 05:12:18;;;;;;;0.70;0.30;;;21.80;49.20;;;;;;5029531;28;20113;-47
2021/05/15 05:14:44;;;;;;;0.82;0.30;;;21.80;49.10;;;;;;5030916;28;20022;-36
2021/05/15 05:17:10;;;;;;;1.35;0.30;;;21.80;49.80;;;;;;5029963;28;20109;-35
2021/05/15 05:19:36;;;;;;;0.45;0.30;;;21.80;49.20;;;;;;5028950;28;20032;-36
2021/05/15 05:22:03;;;;;;;0.75;0.40;;;21.80;49.10;;;;;;5023253;28;20033;-35
2021/05/15 05:24:29;;;;;;;0.68;0.30;;;21.80;49.10;;;;;;5027697;28;20032;-35
2021/05/15 05:26:56;;;;;;;1.33;0.60;;;21.80;49.10;;;;;;5029725;28;20038;-40
2021/05/15 05:29:22;;;;;;;0.43;0.30;;;21.80;49.10;;;;;;5029186;28;20052;-35
2021/05/15 05:31:51;;;;;;;1.15;0.40;;;21.80;49.00;;;;;;5024888;28;20076;-35
2021/05/15 05:34:18;;;;;;;0.10;0.10;;;21.80;49.00;;;;;;5027917;28;20029;-47
2021/05/15 05:36:44;;;;;;;1.02;0.30;;;21.80;49.00;;;;;;5029595;28;20096;-35
2021/05/15 05:39:17;;;;;;;2.28;0.40;;;21.80;49.00;;;;;;5029623;28;20093;-35
2021/05/15 05:41:46;;;;;;;0.57;0.28;;;21.80;49.00;;;;;;5028550;28;20032;-35
2021/05/15 05:44:12;;;;;;;0.30;0.20;;;21.80;49.00;;;;;;5028691;28;20021;-34
2021/05/15 05:46:38;;;;;;;0.65;0.30;;;21.80;49.00;;;;;;5027923;28;20517;-38
2021/05/15 05:49:04;;;;;;;1.35;0.32;;;21.80;49.00;;;;;;5029477;28;20030;-34
2021/05/15 05:51:30;;;;;;;0.63;0.40;;;21.80;49.00;;;;;;5027335;28;20376;-35
2021/05/15 05:53:55;;;;;;;1.33;0.75;;;21.80;49.00;;;;;;5029422;28;20040;-37
2021/05/15 05:56:21;;;;;;;0.85;0.30;;;21.80;49.00;;;;;;5028550;28;20092;-35
2021/05/15 05:58:47;;;;;;;0.20;0.20;;;21.80;48.90;;;;;;5023420;28;20069;-35
2021/05/15 06:01:14;;;;;;;0.40;0.32;;;21.80;48.90;;;;;;5042003;28;20112;-36
2021/05/15 06:03:40;;;;;;;1.05;0.40;;;21.80;48.90;;;;;;5026512;28;20033;-35
2021/05/15 06:06:06;;;;;;;0.90;0.50;;;21.80;48.90;;;;;;5029447;28;20370;-37
2021/05/15 06:08:32;;;;;;;0.70;0.40;;;21.80;48.90;;;;;;5028745;28;20036;-35
2021/05/15 06:10:58;;;;;;;3.03;0.40;;;21.80;48.90;;;;;;5033285;28;20714;-35
2021/05/15 06:13:25;;;;;;;0.30;0.22;;;21.80;48.80;;;;;;5030142;28;20033;-35
2021/05/15 06:15:51;;;;;;;0.70;0.40;;;21.80;48.90;;;;;;5032732;28;20376;-34
2021/05/15 06:18:17;;;;;;;1.67;0.63;;;21.80;48.80;;;;;;5032500;28;20030;-49
2021/05/15 06:20:43;;;;;;;0.98;0.47;;;21.80;48.80;;;;;;5032381;28;20036;-35
2021/05/15 06:23:09;;;;;;;1.55;0.30;;;21.80;48.80;;;;;;5032800;28;20017;-35
2021/05/15 06:25:34;;;;;;;1.35;0.40;;;21.80;48.80;;;;;;5030848;28;20048;-35
2021/05/15 06:28:00;;;;;;;0.55;0.40;;;21.80;48.70;;;;;;5032755;28;20042;-35
2021/05/15 06:30:26;;;;;;;0.90;0.40;;;21.80;48.70;;;;;;5032470;28;20061;-39
2021/05/15 06:32:52;;;;;;;1.08;0.40;;;21.80;48.70;;;;;;5027711;28;20433;-35
2021/05/15 06:35:18;;;;;;;0.93;0.40;;;21.80;48.70;;;;;;5031728;28;21300;-49
2021/05/15 06:37:43;;;;;;;1.88;0.55;;;21.80;48.70;;;;;;5032184;28;20025;-36
2021/05/15 06:40:09;;;;;;;1.30;0.30;;;21.80;48.70;;;;;;5031236;28;20033;-35
2021/05/15 06:42:36;;;;;;;0.55;0.30;;;21.80;48.70;;;;;;5032473;28;20142;-39
2021/05/15 06:45:07;;;;;;;1.25;0.35;;;21.80;48.70;;;;;;5032729;28;20029;-35
2021/05/15 06:47:33;;;;;;;1.00;0.88;;;21.80;48.70;;;;;;5031617;28;20037;-35
2021/05/15 06:49:59;;;;;;;0.75;0.40;;;21.80;48.70;;;;;;5029654;28;20029;-36
2021/05/15 06:52:25;;;;;;;1.05;0.30;;;21.80;48.60;;;;;;5030283;28;20451;-35
2021/05/15 06:54:51;;;;;;;0.50;0.30;;;21.80;48.60;;;;;;5031829;28;20116;-35
2021/05/15 06:57:18;;;;;;;0.50;0.25;;;21.80;48.60;;;;;;5032150;28;20029;-47
2021/05/15 06:59:43;;;;;;;1.83;0.30;;;21.80;48.50;;;;;;5031281;28;20486;-43
2021/05/15 07:02:10;;;;;;;0.65;0.40;;;21.80;48.50;;;;;;5031889;28;20111;-35
2021/05/15 07:04:35;;;;;;;3.33;0.40;;;21.80;48.50;;;;;;5029839;28;20025;-39
2021/05/15 07:07:01;;;;;;;0.45;0.40;;;21.80;48.50;;;;;;5030882;28;20108;-35
2021/05/15 07:09:27;;;;;;;1.95;0.40;;;21.80;48.50;;;;;;5031269;28;20036;-35
2021/05/15 07:11:52;;;;;;;1.15;0.30;;;21.80;48.40;;;;;;5029996;28;20057;-35
2021/05/15 07:14:18;;;;;;;0.40;0.22;;;21.80;48.50;;;;;;5030232;28;20465;-48
2021/05/15 07:16:44;;;;;;;1.40;0.50;;;21.80;48.40;;;;;;5031314;28;20486;-35
2021/05/15 07:19:10;;;;;;;1.77;0.52;;;21.80;48.40;;;;;;5031518;28;20533;-35
2021/05/15 07:21:38;;;;;;;0.40;0.25;;;21.80;48.40;;;;;;5029656;28;20056;-40
2021/05/15 07:24:04;;;;;;;1.20;0.30;;;21.80;48.40;;;;;;5030818;28;20049;-35
2021/05/15 07:26:30;;;;;;;0.70;0.38;;;21.80;48.40;;;;;;5029494;28;20049;-35
2021/05/15 07:28:56;;;;;;;0.38;0.30;;;21.80;48.30;;;;;;5031013;28;20041;-40
2021/05/15 07:31:21;;;;;;;0.35;0.30;;;21.80;48.40;;;;;;5030767;28;20375;-36
2021/05/15 07:33:47;;;;;;;1.42;0.45;;;21.80;48.30;;;;;;5029893;28;20486;-37
2021/05/15 07:36:13;;;;;;;1.65;0.30;;;21.80;48.30;;;;;;5031050;28;20095;-35
2021/05/15 07:38:40;;;;;;;1.08;0.43;;;21.80;48.30;;;;;;5030738;28;20056;-36
2021/05/15 07:41:06;;;;;;;0.85;0.30;;;21.80;48.30;;;;;;5029683;28;20076;-41
2021/05/15 07:43:31;;;;;;;0.50;0.32;;;21.80;48.30;;;;;;5030902;28;20053;-35
2021/05/15 07:45:58;;;;;;;0.30;0.30;;;21.80;48.30;;;;;;5029442;28;20056;-49
2021/05/15 07:48:29;;;;;;;0.75;0.40;;;21.80;48.30;;;;;;5030133;28;20459;-35
2021/05/15 07:50:59;;;;;;;1.70;0.30;;;21.80;48.20;;;;;;5029538;28;20065;-38
2021/05/15 07:53:26;;;;;;;0.98;0.38;;;21.80;48.30;;;;;;5028027;28;20021;-35
2021/05/15 07:55:52;;;;;;;0.45;0.30;;;21.80;48.30;;;;;;5030972;28;20474;-35
2021/05/15 07:58:18;;;;;;;1.92;0.55;;;21.80;48.30;;;;;;5030321;28;20054;-49
2021/05/15 08:00:44;;;;;;;0.60;0.40;;;21.80;48.30;;;;;;5030968;28;20051;-35
2021/05/15 08:03:10;;;;;;;0.90;0.47;;;21.80;48.20;;;;;;5031108;28;20144;-35
2021/05/15 08:05:37;;;;;;;0.88;0.38;;;21.80;48.20;;;;;;5026854;28;20108;-36
2021/05/15 08:08:03;;;;;;;1.95;0.50;;;21.90;48.20;;;;;;5032078;28;20052;-36
2021/05/15 08:10:30;;;;;;;3.72;0.60;;;21.90;48.30;;;;;;5031198;28;20108;-35
2021/05/15 08:12:59;;;;;;;4.20;0.95;;;21.90;48.40;;;;;;5031706;28;20429;-35
2021/05/15 08:15:25;;;;;;;3.25;0.68;;;22.00;47.40;;;;;;5029520;28;20026;-35
2021/05/15 08:17:51;;;;;;;1.15;0.47;;;21.90;45.80;;;;;;5030714;28;20033;-35
2021/05/15 08:20:19;;;;;;;4.20;0.50;;;21.90;46.50;;;;;;5031339;28;20025;-49
2021/05/15 08:22:46;;;;;;;3.45;0.93;;;21.80;46.50;;;;;;5031594;28;20029;-35
2021/05/15 08:25:13;;;;;;;1.77;0.55;;;21.80;47.70;;;;;;5031668;28;20167;-35
2021/05/15 08:27:40;;;;;;;7.97;0.60;;;21.80;47.90;;;;;;5031475;28;20109;-35
2021/05/15 08:30:17;;;;;;;2.58;0.60;;;21.70;46.80;;;;;;5029958;28;20036;-36
2021/05/15 08:32:42;;;;;;;2.70;0.60;;;21.70;44.60;;;;;;5031508;28;20482;-35
2021/05/15 08:35:09;;;;;;;2.67;0.50;;;21.70;41.90;;;;;;5030434;28;20033;-35
2021/05/15 08:37:35;;;;;;;2.25;0.57;;;21.70;42.20;;;;;;5030889;28;20028;-35
2021/05/15 08:40:00;;;;;;;2.47;0.52;;;21.70;42.90;;;;;;5031236;28;20037;-39
2021/05/15 08:42:29;;;;;;;2.15;0.55;;;21.70;43.10;;;;;;5026415;28;20390;-35
2021/05/15 08:44:58;;;;;;;4.20;0.60;;;21.60;44.10;;;;;;5030112;28;20474;-35
2021/05/15 08:47:25;;;;;;;3.83;0.40;;;21.60;42.50;;;;;;5031103;28;20032;-35
2021/05/15 08:49:52;;;;;;;0.50;0.30;;;21.70;44.50;;;;;;5031205;28;20048;-37
2021/05/15 08:52:18;;;;;;;5.72;0.73;;;21.60;43.90;;;;;;5031161;28;20067;-47
2021/05/15 08:54:45;;;;;;;2.45;0.70;;;21.60;41.70;;;;;;5029952;28;20056;-35
2021/05/15 08:57:11;;;;;;;4.70;0.80;;;21.60;41.90;;;;;;5029471;28;20029;-33
2021/05/15 08:59:36;;;;;;;3.47;0.60;;;21.50;43.60;;;;;;5030596;28;20544;-34
2021/05/15 09:02:02;;;;;;;6.97;0.90;;;21.60;43.80;;;;;;5031249;28;20456;-34
2021/05/15 09:04:27;;;;;;;5.47;0.98;;;21.70;46.10;;;;;;5029443;28;20367;-35
2021/05/15 09:06:53;;;;;;;6.85;0.60;;;21.80;46.40;;;;;;5031175;28;20057;-34
2021/05/15 09:09:19;;;;;;;4.13;0.70;;;21.90;46.00;;;;;;5030595;28;20037;-48
2021/05/15 09:11:47;;;;;;;2.30;0.70;;;21.90;46.30;;;;;;5029534;28;20037;-34
2021/05/15 09:14:18;;;;;;;6.88;0.80;;;21.90;46.00;;;;;;5030223;28;20061;-34
2021/05/15 09:16:55;;;;;;;3.90;0.70;;;21.90;46.50;;;;;;5030559;28;20471;-34
2021/05/15 09:19:24;;;;;;;2.95;0.55;;;22.00;46.70;;;;;;5030658;28;20044;-44
2021/05/15 09:21:57;;;;;;;8.98;1.05;;;22.00;46.60;;;;;;5030304;28;20029;-35
2021/05/15 09:24:36;;;;;;;2.90;0.50;;;22.00;46.90;;;;;;5030224;28;20032;-43
2021/05/15 09:27:06;;;;;;;6.88;1.05;;;22.00;46.90;;;;;;5024990;28;20468;-34
2021/05/15 09:29:45;;;;;;;3.28;0.60;;;22.00;47.00;;;;;;5030152;28;20041;-35
2021/05/15 09:32:13;;;;;;;0.77;0.50;;;22.00;47.00;;;;;;5031340;28;20025;-34
2021/05/15 09:34:47;;;;;;;4.20;0.63;;;22.00;47.00;;;;;;5027735;28;20026;-35
2021/05/15 09:37:12;;;;;;;1.95;0.57;;;22.00;47.10;;;;;;5030615;28;20025;-35
2021/05/15 09:39:38;;;;;;;1.52;0.52;;;22.10;47.20;;;;;;5030343;28;20060;-34
2021/05/15 09:42:07;;;;;;;3.63;0.80;;;22.10;47.30;;;;;;5029852;28;20025;-34
2021/05/15 09:44:35;;;;;;;3.08;0.60;;;22.00;47.60;;;;;;5033964;28;20021;-35
2021/05/15 09:47:02;;;;;;;0.95;0.40;;;21.90;46.40;;;;;;5034563;28;20029;-34
2021/05/15 09:49:30;;;;;;;2.88;0.60;;;21.80;44.10;;;;;;5032827;28;20029;-35
2021/05/15 09:52:00;;;;;;;11.65;1.35;;;21.70;45.20;;;;;;5034555;28;20033;-35
2021/05/15 09:54:43;;;;;;;4.72;0.80;;;21.80;45.60;;;;;;5034021;28;20022;-34
2021/05/15 09:57:11;;;;;;;1.58;0.50;;;21.90;45.70;;;;;;5030090;28;20057;-35
2021/05/15 09:59:38;;;;;;;8.60;0.60;;;21.90;45.80;;;;;;5031955;28;20080;-35
2021/05/15 10:02:06;;;;;;;3.33;0.68;;;22.00;46.00;;;;;;5034596;28;20017;-35
2021/05/15 10:04:33;;;;;;;4.53;0.77;;;22.00;46.20;;;;;;5021063;28;20034;-34
2021/05/15 10:06:59;;;;;;;6.93;0.57;;;22.00;46.40;;;;;;5012531;28;20514;-35
2021/05/15 10:09:34;;;;;;;6.53;0.60;;;22.00;46.60;;;;;;5027770;28;20050;-35
2021/05/15 10:12:02;;;;;;;5.82;0.82;;;22.10;46.70;;;;;;5019988;28;20395;-34
2021/05/15 10:14:28;;;;;;;3.53;0.60;;;22.10;46.70;;;;;;5011659;28;20443;-35
2021/05/15 10:16:55;;;;;;;2.40;0.45;;;22.10;46.80;;;;;;5015501;28;20083;-35
2021/05/15 10:19:21;;;;;;;3.10;0.50;;;22.10;46.90;;;;;;5024130;28;20502;-43
2021/05/15 10:21:47;;;;;;;1.77;0.50;;;22.10;47.00;;;;;;5015017;28;20483;-34
2021/05/15 10:24:22;;;;;;;4.80;0.60;;;22.10;47.00;;;;;;5019683;28;20121;-35
2021/05/15 10:27:01;;;;;;;4.03;0.80;;;22.10;47.10;;;;;;5015658;28;20037;-35
2021/05/15 10:29:52;;;;;;;2.63;0.55;;;22.10;47.20;;;;;;5015063;28;20057;-35
2021/05/15 10:32:38;;;;;;;3.20;0.52;;;22.10;47.30;;;;;;5021426;28;20025;-35
2021/05/15 10:35:07;;;;;;;2.35;1.38;;;22.10;47.40;;;;;;5003860;28;20048;-35
2021/05/15 10:37:37;;;;;;;1.27;0.60;;;22.10;47.40;;;;;;5014166;28;20120;-35
2021/05/15 10:40:21;;;;;;;5.68;0.50;;;22.10;47.40;;;;;;5031005;28;20046;-34
2021/05/15 10:43:01;;;;;;;11.55;0.60;;;22.10;47.50;;;;;;5011100;28;20034;-37
2021/05/15 10:45:38;;;;;;;3.40;0.43;;;22.10;47.50;;;;;;5028374;28;20435;-35
2021/05/15 10:48:24;;;;;;;3.42;0.40;;;22.10;48.20;;;;;;5031431;28;20042;-34
2021/05/15 10:51:00;;;;;;;2.63;0.40;;;22.10;47.60;;;;;;5031660;28;20498;-37
2021/05/15 10:53:28;;;;;;;1.30;0.57;;;22.20;47.60;;;;;;5025526;28;20038;-35
2021/05/15 10:56:14;;;;;;;0.80;0.32;;;22.20;47.60;;;;;;5031264;28;20087;-35
2021/05/15 10:58:51;;;;;;;2.17;0.50;;;22.20;47.70;;;;;;5030018;28;20124;-38
2021/05/15 11:01:20;;;;;;;0.88;0.50;;;22.10;47.70;;;;;;5031247;28;20064;-35
2021/05/15 11:03:48;;;;;;;2.58;0.50;;;22.10;47.80;;;;;;5026138;28;20033;-34
2021/05/15 11:06:13;;;;;;;1.77;0.38;;;22.10;48.40;;;;;;5030866;28;20444;-35
2021/05/15 11:08:40;;;;;;;1.00;0.40;;;22.10;47.70;;;;;;5029865;28;20159;-35
2021/05/15 11:11:09;;;;;;;0.40;0.35;;;22.10;47.80;;;;;;5030634;28;20036;-37
2021/05/15 11:13:46;;;;;;;4.35;0.70;;;22.10;47.80;;;;;;5032152;28;20036;-37
2021/05/15 11:16:13;;;;;;;2.25;0.88;;;22.10;47.90;;;;;;5033063;28;20029;-37
2021/05/15 11:18:39;;;;;;;3.08;0.50;;;22.10;47.90;;;;;;5032414;28;20033;-37
2021/05/15 11:21:07;;;;;;;1.42;0.60;;;22.20;47.90;;;;;;5032105;28;20159;-37
2021/05/15 11:23:36;;;;;;;2.03;0.43;;;22.20;48.10;;;;;;5027839;28;20026;-38
2021/05/15 11:26:05;;;;;;;1.85;0.50;;;22.20;47.80;;;;;;5032875;28;20029;-36
2021/05/15 11:28:32;;;;;;;2.50;0.60;;;22.20;48.00;;;;;;5031570;28;20144;-38
2021/05/15 11:30:59;;;;;;;2.88;0.40;;;22.10;47.80;;;;;;5011945;28;20070;-37
2021/05/15 11:33:26;;;;;;;4.18;0.57;;;22.10;47.80;;;;;;5029270;28;20025;-48
2021/05/15 11:35:57;;;;;;;4.90;0.75;;;22.10;48.00;;;;;;5031708;28;20025;-37
2021/05/15 11:38:30;;;;;;;2.38;0.57;;;22.10;48.00;;;;;;5030922;28;20071;-48
2021/05/15 11:40:57;;;;;;;2.22;0.60;;;22.10;48.20;;;;;;5031765;28;20458;-37
2021/05/15 11:43:29;;;;;;;18.95;1.08;;;22.10;48.10;;;;;;5032139;28;20124;-47
2021/05/15 11:45:55;;;;;;;4.05;0.50;;;22.10;48.20;;;;;;5032920;28;20029;-37
2021/05/15 11:48:26;;;;;;;3.17;0.50;;;22.20;48.30;;;;;;5032341;28;20037;-37
2021/05/15 11:51:11;;;;;;;3.67;0.60;;;22.20;48.40;;;;;;5032601;28;20481;-37
2021/05/15 11:53:40;;;;;;;1.48;0.68;;;22.30;48.60;;;;;;5029689;28;20022;-37
2021/05/15 11:56:27;;;;;;;7.80;0.60;;;22.40;48.80;;;;;;5032334;28;20025;-37
2021/05/15 11:58:57;;;;;;;5.47;1.05;;;22.60;48.90;;;;;;5031355;28;20076;-37
2021/05/15 12:01:31;;;;;;;3.00;0.68;;;22.70;48.90;;;;;;5032099;28;20115;-48
2021/05/15 12:04:07;;;;;;;10.15;8.20;;;22.80;49.90;;;;;;5032981;28;20036;-37
2021/05/15 12:06:33;;;;;;;8.65;2.90;;;22.90;53.90;;;;;;5030669;28;20398;-37
2021/05/15 12:08:59;;;;;;;5.00;2.50;;;23.10;49.90;;;;;;5031937;28;20041;-37
2021/05/15 12:11:26;;;;;;;7.00;2.20;;;23.00;49.70;;;;;;5031449;28;20025;-48
2021/05/15 12:13:53;;;;;;;7.90;1.85;;;22.90;51.30;;;;;;5031976;28;20112;-37
2021/05/15 12:16:20;;;;;;;4.30;1.90;;;22.90;50.50;;;;;;5031887;28;20462;-37
2021/05/15 12:18:46;;;;;;;4.43;1.63;;;22.90;49.90;;;;;;5027947;28;20116;-37
2021/05/15 12:21:12;;;;;;;3.20;1.50;;;22.90;49.60;;;;;;5031512;28;20037;-41
2021/05/15 12:23:37;;;;;;;3.67;1.73;;;22.90;49.50;;;;;;5030460;28;20021;-38
2021/05/15 12:26:08;;;;;;;4.45;1.25;;;22.90;49.40;;;;;;5031954;28;20032;-37
2021/05/15 12:28:41;;;;;;;4.30;1.50;;;22.90;49.30;;;;;;5030856;28;20060;-38
2021/05/15 12:31:18;;;;;;;5.85;1.40;;;22.90;49.10;;;;;;5031952;28;20030;-37
2021/05/15 12:33:44;;;;;;;7.18;2.20;;;22.90;49.00;;;;;;5030638;28;20149;-39
2021/05/15 12:36:09;;;;;;;6.30;1.70;;;22.80;49.10;;;;;;5031692;28;20108;-37
2021/05/15 12:38:47;;;;;;;4.50;1.50;;;22.80;49.10;;;;;;5031074;28;20026;-38
2021/05/15 12:41:21;;;;;;;4.88;1.38;;;22.90;49.00;;;;;;5031514;28;20036;-37
2021/05/15 12:44:20;;;;;;;13.00;1.73;;;22.80;49.10;;;;;;5029668;28;20079;-37
2021/05/15 12:46:48;;;;;;;4.22;1.67;;;22.70;49.10;;;;;;5030340;28;20037;-38
2021/05/15 12:49:17;;;;;;;7.45;1.70;;;22.60;49.10;;;;;;5030192;28;20425;-37
2021/05/15 12:51:46;;;;;;;8.18;2.10;;;22.60;49.20;;;;;;5031158;28;20037;-38